createdAt,value
2023-05-09T00:02:16.636Z,10.12
2023-05-09T00:04:50.306Z,10.15
2023-05-09T00:07:26.572Z,10.20
2023-05-09T00:10:02.759Z,10.14
2023-05-09T00:12:35.339Z,10.17
2023-05-09T00:15:09.562Z,10.05
2023-05-09T00:17:41.756Z,10.06
2023-05-09T00:20:14.964Z,10.02
2023-05-09T00:22:47.045Z,10.00
2023-05-09T00:25:22.141Z,9.92
2023-05-09T00:27:54.161Z,9.88
2023-05-09T00:30:29.044Z,9.89
2023-05-09T00:33:01.515Z,9.89
2023-05-09T00:35:35.400Z,9.88
2023-05-09T00:38:07.365Z,9.92
2023-05-09T00:40:42.558Z,9.87
2023-05-09T00:43:15.517Z,9.85
2023-05-09T00:45:48.593Z,9.85
2023-05-09T00:48:21.282Z,9.84
2023-05-09T00:50:53.657Z,9.87
2023-05-09T00:53:25.827Z,9.84
2023-05-09T00:56:01.399Z,9.75
2023-05-09T00:58:33.823Z,9.86
2023-05-09T01:01:06.052Z,9.79
2023-05-09T01:03:39.131Z,9.77
2023-05-09T01:06:21.312Z,9.74
2023-05-09T01:09:05.457Z,9.75
2023-05-09T01:11:47.923Z,9.71
2023-05-09T01:14:33.081Z,9.69
2023-05-09T01:17:14.199Z,9.71
2023-05-09T01:20:00.917Z,9.64
2023-05-09T01:22:36.651Z,9.72
2023-05-09T01:25:40.409Z,9.67
2023-05-09T01:28:31.558Z,9.64
2023-05-09T01:31:13.447Z,9.61
2023-05-09T01:33:54.960Z,9.64
2023-05-09T01:36:30.093Z,9.60
2023-05-09T01:39:07.803Z,9.60
2023-05-09T01:41:41.618Z,9.55
2023-05-09T01:44:19.547Z,9.49
2023-05-09T01:46:57.419Z,9.44
2023-05-09T01:49:32.442Z,9.46
2023-05-09T01:52:11.336Z,9.44
2023-05-09T01:54:45.121Z,9.45
2023-05-09T01:57:22.380Z,9.48
2023-05-09T01:59:55.851Z,9.42
2023-05-09T02:02:31.611Z,9.45
2023-05-09T04:12:56.002Z,8.98
2023-05-09T04:15:28.848Z,8.96
2023-05-09T04:18:00.946Z,9.01
2023-05-09T04:20:33.384Z,8.94
2023-05-09T04:23:05.502Z,8.99
2023-05-09T04:25:37.813Z,9.07
2023-05-09T04:28:12.710Z,9.03
2023-05-09T04:30:45.422Z,9.09
2023-05-09T04:33:17.662Z,9.10
2023-05-09T04:35:50.336Z,9.11
2023-05-09T04:38:22.435Z,9.07
2023-05-09T04:40:54.888Z,9.13
2023-05-09T04:43:30.367Z,9.24
2023-05-09T04:46:02.883Z,9.21
2023-05-09T04:48:34.847Z,9.21
2023-05-09T04:51:07.378Z,9.21
2023-05-09T04:53:39.685Z,9.41
2023-05-09T04:56:12.107Z,9.62
2023-05-09T04:58:46.861Z,9.58
2023-05-09T05:01:19.631Z,9.70
2023-05-09T05:03:51.749Z,9.81
2023-05-09T05:06:24.187Z,9.89
2023-05-09T05:08:56.464Z,9.85
2023-05-09T05:11:31.345Z,10.03
2023-05-09T05:14:06.187Z,10.20
2023-05-09T05:16:38.983Z,10.20
2023-05-09T05:19:11.306Z,10.15
2023-05-09T05:21:43.966Z,10.31
2023-05-09T05:24:16.430Z,10.58
2023-05-09T05:26:49.023Z,10.76
2023-05-09T05:29:23.949Z,10.90
2023-05-09T05:31:56.726Z,10.95
2023-05-09T05:34:29.107Z,11.33
2023-05-09T05:37:02.182Z,12.04
2023-05-09T05:39:34.447Z,13.07
2023-05-09T05:42:07.031Z,13.97
2023-05-09T05:44:42.126Z,14.41
2023-05-09T05:47:14.941Z,14.77
2023-05-09T05:49:47.277Z,15.33
2023-05-09T05:52:19.641Z,15.89
2023-05-09T05:54:51.521Z,16.30
2023-05-09T05:57:23.969Z,16.45
2023-05-09T05:59:58.419Z,17.13
2023-05-09T06:02:34.863Z,17.69
2023-05-09T06:05:07.555Z,17.83
2023-05-09T06:07:41.521Z,17.89
2023-05-09T06:10:16.302Z,17.34
2023-05-09T06:12:48.592Z,16.59
2023-05-09T06:15:23.489Z,16.82
2023-05-09T06:17:55.876Z,17.09
2023-05-09T06:20:27.880Z,16.78
2023-05-09T06:22:59.934Z,17.27
2023-05-09T06:25:31.845Z,17.91
2023-05-09T06:28:04.159Z,18.03
2023-05-09T06:30:38.622Z,17.65
2023-05-09T06:33:10.898Z,17.41
2023-05-09T06:35:42.751Z,18.03
2023-05-09T06:38:15.201Z,18.04
2023-05-09T06:40:47.100Z,18.26
2023-05-09T06:43:19.430Z,18.57
2023-05-09T06:45:54.309Z,18.77
2023-05-09T06:48:27.280Z,18.92
2023-05-09T06:50:59.690Z,18.94
2023-05-09T06:53:32.481Z,18.76
2023-05-09T06:56:04.969Z,18.78
2023-05-09T06:58:54.367Z,18.84
2023-05-09T07:01:29.929Z,19.22
2023-05-09T07:04:02.528Z,18.65
2023-05-09T07:06:35.204Z,18.44
2023-05-09T07:09:07.676Z,18.38
2023-05-09T07:11:40.566Z,18.63
2023-05-09T07:14:12.805Z,18.74
2023-05-09T07:16:48.328Z,19.06
2023-05-09T07:19:20.813Z,19.20
2023-05-09T07:21:53.447Z,19.94
2023-05-09T07:24:25.846Z,19.90
2023-05-09T07:26:58.405Z,19.44
2023-05-09T07:29:30.696Z,19.68
2023-05-09T07:32:06.379Z,19.69
2023-05-09T07:34:39.968Z,19.47
2023-05-09T07:37:13.743Z,19.48
2023-05-09T07:39:48.207Z,19.42
2023-05-09T07:42:21.405Z,20.22
2023-05-09T07:44:53.962Z,19.65
2023-05-09T07:47:29.820Z,19.37
2023-05-09T07:50:02.607Z,19.37
2023-05-09T07:52:35.770Z,18.74
2023-05-09T07:55:12.869Z,18.39
2023-05-09T07:57:46.164Z,18.78
2023-05-09T08:00:23.940Z,19.40
2023-05-09T08:03:00.173Z,19.56
2023-05-09T08:05:33.168Z,19.49
2023-05-09T08:08:06.362Z,19.63
2023-05-09T08:10:39.008Z,19.95
2023-05-09T08:13:12.094Z,19.62
2023-05-09T08:15:44.835Z,19.44
2023-05-09T08:18:20.772Z,19.53
2023-05-09T08:20:53.723Z,19.99
2023-05-09T08:23:26.708Z,19.71
2023-05-09T08:25:59.611Z,20.17
2023-05-09T08:28:32.688Z,20.42
2023-05-09T08:31:05.639Z,20.35
2023-05-09T08:33:42.080Z,20.04
2023-05-09T08:36:15.011Z,20.28
2023-05-09T08:38:48.292Z,20.53
2023-05-09T08:41:22.124Z,19.81
2023-05-09T08:43:55.884Z,19.78
2023-05-09T08:46:34.486Z,19.72
2023-05-09T08:49:12.524Z,19.54
2023-05-09T08:51:45.527Z,20.09
2023-05-09T08:54:20.606Z,20.86
2023-05-09T08:56:54.369Z,20.37
2023-05-09T08:59:28.772Z,20.48
2023-05-09T09:02:02.385Z,21.04
2023-05-09T09:04:38.320Z,21.15
2023-05-09T09:07:11.684Z,21.39
2023-05-09T09:09:49.691Z,21.61
2023-05-09T09:12:25.922Z,21.68
2023-05-09T09:15:00.219Z,21.47
2023-05-09T09:17:34.532Z,21.82
2023-05-09T09:20:15.653Z,21.41
2023-05-09T09:22:52.004Z,21.47
2023-05-09T09:25:25.120Z,21.30
2023-05-09T09:27:57.528Z,21.05
2023-05-09T09:30:30.740Z,20.47
2023-05-09T09:33:04.061Z,20.63
2023-05-09T09:35:43.969Z,20.18
2023-05-09T09:38:16.561Z,21.26
2023-05-09T09:40:56.330Z,21.01
2023-05-09T09:43:32.584Z,21.10
2023-05-09T09:46:06.463Z,21.17
2023-05-09T09:48:40.079Z,21.50
2023-05-09T09:51:18.967Z,22.14
2023-05-09T09:53:51.447Z,22.00
2023-05-09T09:56:28.404Z,21.82
2023-05-09T09:59:21.785Z,22.04
2023-05-09T10:02:08.354Z,21.72
2023-05-09T10:04:52.446Z,21.88
2023-05-09T10:07:28.972Z,22.18
2023-05-09T10:10:01.723Z,22.32
2023-05-09T10:12:36.579Z,21.93
2023-05-09T10:15:12.530Z,21.65
2023-05-09T10:17:46.638Z,22.32
2023-05-09T10:20:22.288Z,21.72
2023-05-09T10:22:59.968Z,22.39
2023-05-09T10:25:41.731Z,22.98
2023-05-09T10:28:16.897Z,22.96
2023-05-09T10:31:00.581Z,22.75
2023-05-09T10:33:41.644Z,22.60
2023-05-09T10:36:15.607Z,22.43
2023-05-09T10:38:52.087Z,21.75
2023-05-09T10:41:26.468Z,21.53
2023-05-09T10:44:00.607Z,22.12
2023-05-09T10:46:33.627Z,21.77
2023-05-09T10:49:07.284Z,22.18
2023-05-09T10:51:40.125Z,21.80
2023-05-09T10:54:32.997Z,21.48
2023-05-09T10:57:06.805Z,21.46
2023-05-09T10:59:41.644Z,21.46
2023-05-09T11:02:17.493Z,21.53
2023-05-09T11:04:50.320Z,21.41
2023-05-09T11:07:30.603Z,21.29
2023-05-09T11:10:19.074Z,21.28
2023-05-09T11:12:58.684Z,21.01
2023-05-09T11:15:31.443Z,20.93
2023-05-09T11:18:11.130Z,21.01
2023-05-09T11:20:48.362Z,21.48
2023-05-09T11:23:23.723Z,21.64
2023-05-09T11:26:09.084Z,21.77
2023-05-09T11:28:42.044Z,21.79
2023-05-09T11:31:16.244Z,21.73
2023-05-09T11:33:56.728Z,21.25
2023-05-09T11:36:34.103Z,21.03
2023-05-09T11:39:09.493Z,21.19
2023-05-09T11:41:50.803Z,20.79
2023-05-09T11:44:25.087Z,20.50
2023-05-09T11:46:57.566Z,20.21
2023-05-09T11:49:33.402Z,19.92
2023-05-09T11:52:06.170Z,19.93
2023-05-09T11:54:41.884Z,20.15
2023-05-09T11:57:17.971Z,20.36
2023-05-09T11:59:52.200Z,20.00
2023-05-09T12:02:27.883Z,19.27
2023-05-09T12:05:00.408Z,19.37
2023-05-09T12:07:34.168Z,19.55
2023-05-09T12:10:09.018Z,19.42
2023-05-09T12:12:48.159Z,19.63
2023-05-09T12:15:22.112Z,19.65
2023-05-09T12:18:06.537Z,19.90
2023-05-09T12:20:46.678Z,19.92
2023-05-09T12:23:19.545Z,19.65
2023-05-09T12:25:52.198Z,19.48
2023-05-09T12:28:29.117Z,19.35
2023-05-09T12:31:02.616Z,19.55
2023-05-09T12:33:35.560Z,19.24
2023-05-09T12:36:10.682Z,19.46
2023-05-09T12:38:43.921Z,19.38
2023-05-09T12:41:33.388Z,19.44
2023-05-09T12:44:10.615Z,19.53
2023-05-09T12:46:43.421Z,19.51
2023-05-09T12:49:24.440Z,19.48
2023-05-09T12:51:58.444Z,19.15
2023-05-09T12:54:32.597Z,19.32
2023-05-09T12:57:06.245Z,19.37
2023-05-09T12:59:41.522Z,19.25
2023-05-09T13:02:14.999Z,19.09
2023-05-09T13:04:47.605Z,19.41
2023-05-09T13:07:21.878Z,19.42
2023-05-09T13:10:01.644Z,19.52
2023-05-09T13:12:35.236Z,19.36
2023-05-09T13:15:13.380Z,19.13
2023-05-09T13:17:46.681Z,19.17
2023-05-09T13:20:19.700Z,19.13
2023-05-09T13:22:52.888Z,19.15
2023-05-09T13:25:25.658Z,19.13
2023-05-09T13:27:58.601Z,19.37
2023-05-09T13:30:34.027Z,19.17
2023-05-09T13:33:23.875Z,19.27
2023-05-09T13:35:58.205Z,19.27
2023-05-09T13:38:31.322Z,19.36
2023-05-09T13:41:04.010Z,19.12
2023-05-09T13:43:37.171Z,19.13
2023-05-09T13:46:12.508Z,19.02
2023-05-09T13:48:45.641Z,18.87
2023-05-09T13:51:18.361Z,18.85
2023-05-09T13:53:51.365Z,19.09
2023-05-09T13:56:24.043Z,19.23
2023-05-09T13:58:57.042Z,19.16
2023-05-09T14:01:32.563Z,19.14
2023-05-09T14:04:06.028Z,19.15
2023-05-09T14:06:38.460Z,19.18
2023-05-09T14:09:11.568Z,19.36
2023-05-09T14:11:44.124Z,19.31
2023-05-09T14:14:17.382Z,19.32
2023-05-09T14:16:53.167Z,19.38
2023-05-09T14:19:27.602Z,19.31
2023-05-09T14:22:00.442Z,19.21
2023-05-09T14:24:33.766Z,19.42
2023-05-09T14:27:06.282Z,19.33
2023-05-09T14:29:41.425Z,19.23
2023-05-09T14:32:17.049Z,19.35
2023-05-09T14:34:50.362Z,19.37
2023-05-09T14:37:23.213Z,19.50
2023-05-09T14:39:56.246Z,19.57
2023-05-09T14:42:28.964Z,19.43
2023-05-09T14:45:02.171Z,19.37
2023-05-09T14:47:37.903Z,19.39
2023-05-09T14:50:16.406Z,19.31
2023-05-09T14:52:49.282Z,19.24
2023-05-09T14:55:23.457Z,19.30
2023-05-09T14:57:56.003Z,19.37
2023-05-09T15:00:29.508Z,19.35
2023-05-09T15:03:05.456Z,19.27
2023-05-09T15:05:40.518Z,19.29
2023-05-09T15:08:13.172Z,19.26
2023-05-09T15:10:46.162Z,19.41
2023-05-09T15:13:18.875Z,19.45
2023-05-09T15:15:52.039Z,19.35
2023-05-09T15:18:30.685Z,19.25
2023-05-09T15:21:04.880Z,19.38
2023-05-09T15:23:37.571Z,19.42
2023-05-09T15:26:12.962Z,19.47
2023-05-09T15:28:45.965Z,19.47
2023-05-09T15:31:21.933Z,19.65
2023-05-09T15:33:57.241Z,19.73
2023-05-09T15:36:36.124Z,19.61
2023-05-09T15:39:14.246Z,19.57
2023-05-09T15:41:47.203Z,19.34
2023-05-09T15:44:19.879Z,19.30
2023-05-09T15:46:53.519Z,19.36
2023-05-09T15:49:28.844Z,19.43
2023-05-09T15:52:02.051Z,19.32
2023-05-09T15:54:35.327Z,19.12
2023-05-09T15:57:08.644Z,19.16
2023-05-09T15:59:41.728Z,19.24
2023-05-09T16:02:15.062Z,19.22
2023-05-09T16:04:50.644Z,19.25
2023-05-09T16:07:23.965Z,19.25
2023-05-09T16:09:56.606Z,19.29
2023-05-09T16:12:33.172Z,19.37
2023-05-09T16:15:12.404Z,19.21
2023-05-09T16:17:50.526Z,19.14
2023-05-09T16:20:26.178Z,19.11
2023-05-09T16:22:59.204Z,19.22
2023-05-09T16:25:33.899Z,19.24
2023-05-09T16:28:08.963Z,19.21
2023-05-09T16:30:41.605Z,19.27
2023-05-09T16:33:14.926Z,19.28
2023-05-09T16:35:51.123Z,19.15
2023-05-09T16:38:24.284Z,19.12
2023-05-09T16:40:57.003Z,19.18
2023-05-09T16:43:31.259Z,19.00
2023-05-09T16:46:03.997Z,19.01
2023-05-09T16:48:37.089Z,19.09
2023-05-09T16:51:12.525Z,18.92
2023-05-09T16:53:45.846Z,18.77
2023-05-09T16:56:18.522Z,18.72
2023-05-09T16:58:52.085Z,18.77
2023-05-09T17:01:24.748Z,18.75
2023-05-09T17:03:57.641Z,18.75
2023-05-09T17:06:33.332Z,18.67
2023-05-09T17:09:06.383Z,18.65
2023-05-09T17:11:39.045Z,18.63
2023-05-09T20:59:51.748Z,15.04
2023-05-09T21:02:24.638Z,15.00
2023-05-09T21:04:57.163Z,14.90
2023-05-09T21:07:33.967Z,14.90
2023-05-09T21:10:06.095Z,14.87
2023-05-09T21:12:39.430Z,14.87
2023-05-09T21:15:14.556Z,14.79
2023-05-09T21:17:53.700Z,14.81
2023-05-09T21:20:26.463Z,14.65
2023-05-09T21:23:26.684Z,14.65
2023-05-09T21:26:04.216Z,14.67
2023-05-09T21:28:36.649Z,14.63
2023-05-09T21:31:12.625Z,14.52
2023-05-09T21:33:52.530Z,14.55
2023-05-09T21:36:35.823Z,14.51
2023-05-09T21:39:23.718Z,14.39
2023-05-09T21:41:57.301Z,14.40
2023-05-09T21:44:30.587Z,14.42
2023-05-09T21:47:15.667Z,14.35
2023-05-09T21:49:47.841Z,14.33
2023-05-09T21:52:19.696Z,14.25
2023-05-09T21:54:54.730Z,14.19
2023-05-09T21:57:26.590Z,14.11
2023-05-09T22:00:05.649Z,14.08
2023-05-09T22:02:40.402Z,14.02
2023-05-09T22:05:13.432Z,14.07
2023-05-09T22:07:45.413Z,14.09
2023-05-09T22:10:18.122Z,14.10
2023-05-09T22:12:50.372Z,14.00
2023-05-09T22:15:22.929Z,13.99
2023-05-09T22:17:58.128Z,13.91
2023-05-09T22:20:31.136Z,13.92
2023-05-09T22:23:03.277Z,13.88
2023-05-09T22:25:35.934Z,13.88
2023-05-09T22:28:08.326Z,13.84
2023-05-09T22:30:40.682Z,13.91
2023-05-09T22:33:15.210Z,13.81
2023-05-09T22:38:40.671Z,13.77
2023-05-09T22:41:13.047Z,13.74
2023-05-09T22:43:45.409Z,13.75
2023-05-09T22:46:17.829Z,13.73
2023-05-09T22:48:52.527Z,13.72
2023-05-09T22:51:24.821Z,13.64
2023-05-09T22:53:56.699Z,13.71
2023-05-09T22:56:29.668Z,13.65
2023-05-09T22:59:02.120Z,13.63
2023-05-09T23:01:49.857Z,13.55
2023-05-09T23:04:39.889Z,13.50
2023-05-09T23:07:27.580Z,13.49
2023-05-09T23:10:15.047Z,13.43
2023-05-09T23:13:05.478Z,13.44
2023-05-09T23:15:54.505Z,13.41
2023-05-09T23:18:28.636Z,13.37
2023-05-09T23:21:03.337Z,13.24
2023-05-09T23:23:35.815Z,13.32
2023-05-09T23:26:08.494Z,13.30
2023-05-09T23:28:41.395Z,13.22
2023-05-09T23:31:13.825Z,13.22
2023-05-09T23:33:46.792Z,13.30
2023-05-09T23:36:21.864Z,13.20
2023-05-09T23:38:54.906Z,13.13
2023-05-09T23:41:27.119Z,13.14
2023-05-09T23:44:00.605Z,13.10
2023-05-09T23:46:34.739Z,13.12
2023-05-09T23:52:37.394Z,13.08
2023-05-09T23:55:12.928Z,13.00
2023-05-09T23:57:46.594Z,12.93
